Time;durP1;ratioP1;P1;durP2;ratioP2;P2;SDS_P1;SDS_P2;PMS_P1;PMS_P2;Temp;Humidity;BMP_temperature;BMP_pressure;BME280_temperature;BME280_humidity;BME280_pressure;Samples;Min_cycle;Max_cycle;Signal;HPM_P1;HPM_P2
2022/03/28 00:01:55;;;;;;;21.80;8.07;;;9.90;93.60;;;;;;5098440;28;20024;-76
2022/03/28 00:04:21;;;;;;;14.95;7.40;;;9.90;93.80;;;;;;5099288;28;20139;-75
2022/03/28 00:06:47;;;;;;;13.30;7.20;;;9.90;94.00;;;;;;5098340;28;20024;-75
2022/03/28 00:09:13;;;;;;;14.30;7.63;;;9.80;93.90;;;;;;5098143;28;20035;-75
2022/03/28 00:11:39;;;;;;;13.05;6.97;;;9.80;93.50;;;;;;5099607;28;20399;-76
2022/03/28 00:14:06;;;;;;;9.40;6.65;;;9.80;93.50;;;;;;5097996;28;20488;-76
2022/03/28 00:16:31;;;;;;;14.50;7.60;;;9.80;94.00;;;;;;5099344;28;20031;-75
2022/03/28 00:18:57;;;;;;;13.30;6.25;;;9.70;94.10;;;;;;5097741;28;20024;-75
2022/03/28 00:21:25;;;;;;;21.38;7.55;;;9.70;94.10;;;;;;5099205;28;20012;-76
2022/03/28 00:23:51;;;;;;;11.75;6.55;;;9.70;94.50;;;;;;5099216;28;20048;-75
2022/03/28 00:26:18;;;;;;;17.67;6.93;;;9.60;94.60;;;;;;5099609;28;20020;-75
2022/03/28 00:28:44;;;;;;;24.48;7.47;;;9.70;94.50;;;;;;5097956;28;20028;-75
2022/03/28 00:31:09;;;;;;;16.98;8.20;;;9.60;94.80;;;;;;5099426;28;20051;-75
2022/03/28 00:33:35;;;;;;;12.23;6.80;;;9.70;94.30;;;;;;5098686;28;20027;-76
2022/03/28 00:36:02;;;;;;;16.05;7.18;;;9.60;94.00;;;;;;5099020;28;20092;-75
2022/03/28 00:38:28;;;;;;;20.58;7.40;;;9.60;94.10;;;;;;5098975;28;20043;-76
2022/03/28 00:40:54;;;;;;;17.42;8.15;;;9.60;94.50;;;;;;5097457;28;20084;-75
2022/03/28 00:43:19;;;;;;;10.13;6.25;;;9.60;94.70;;;;;;5097483;28;20382;-75
2022/03/28 00:45:46;;;;;;;17.48;6.90;;;9.60;95.00;;;;;;5098929;28;20504;-75
2022/03/28 00:48:12;;;;;;;12.52;7.30;;;9.50;95.00;;;;;;5097165;28;20044;-75
2022/03/28 00:50:40;;;;;;;18.48;8.55;;;9.50;95.10;;;;;;5098865;28;20024;-75
2022/03/28 00:53:11;;;;;;;16.73;7.25;;;9.50;95.00;;;;;;5098791;28;20408;-75
2022/03/28 00:55:37;;;;;;;14.85;7.70;;;9.50;95.20;;;;;;5098073;28;20032;-75
2022/03/28 00:58:03;;;;;;;14.02;7.53;;;9.50;95.50;;;;;;5098401;28;20033;-75
2022/03/28 01:00:29;;;;;;;14.45;7.47;;;9.50;95.10;;;;;;5097409;28;20455;-75
2022/03/28 01:02:57;;;;;;;13.93;6.93;;;9.40;95.50;;;;;;5098284;28;20024;-75
2022/03/28 01:05:26;;;;;;;21.48;7.53;;;9.50;95.30;;;;;;5097171;28;20016;-75
2022/03/28 01:07:52;;;;;;;11.40;7.22;;;9.40;95.80;;;;;;5098446;28;20031;-75
2022/03/28 01:10:18;;;;;;;12.35;6.80;;;9.40;95.30;;;;;;5098573;28;20392;-75
2022/03/28 01:12:44;;;;;;;20.40;8.18;;;9.40;95.20;;;;;;5098307;28;20027;-75
2022/03/28 01:15:13;;;;;;;13.45;7.70;;;9.40;95.60;;;;;;5098593;28;20028;-75
2022/03/28 01:20:28;;;;;;;12.45;6.97;;;9.40;95.10;;;;;;5098655;28;20039;-76
2022/03/28 01:22:54;;;;;;;14.65;6.85;;;9.40;95.20;;;;;;5098256;28;20056;-75
2022/03/28 01:25:26;;;;;;;12.73;7.10;;;9.30;95.40;;;;;;5096749;28;20020;-75
2022/03/28 01:27:54;;;;;;;20.52;7.50;;;9.30;95.30;;;;;;5095660;28;20152;-76
2022/03/28 01:30:22;;;;;;;16.60;7.57;;;9.30;95.80;;;;;;5097825;28;20031;-76
2022/03/28 01:32:49;;;;;;;11.65;6.82;;;9.30;95.60;;;;;;5096374;28;20488;-75
2022/03/28 01:35:31;;;;;;;17.33;7.80;;;9.20;95.20;;;;;;5098028;28;20552;-76
2022/03/28 01:37:59;;;;;;;15.35;7.60;;;9.20;95.10;;;;;;5097941;28;20461;-75
2022/03/28 01:40:25;;;;;;;17.63;7.90;;;9.20;95.70;;;;;;5096323;28;20569;-75
2022/03/28 01:42:51;;;;;;;15.25;7.93;;;9.20;96.10;;;;;;5096096;28;20177;-75
2022/03/28 01:45:18;;;;;;;15.73;7.47;;;9.10;96.30;;;;;;5097621;28;20021;-75
2022/03/28 01:47:45;;;;;;;16.27;8.07;;;9.00;96.50;;;;;;5096216;28;20031;-74
2022/03/28 01:50:11;;;;;;;19.83;8.07;;;9.00;96.70;;;;;;5096599;28;20020;-75
2022/03/28 01:52:37;;;;;;;12.55;7.85;;;9.00;96.50;;;;;;5097705;28;20558;-76
2022/03/28 01:55:04;;;;;;;18.67;8.60;;;9.00;96.10;;;;;;5096548;28;20491;-75
2022/03/28 01:57:30;;;;;;;12.35;7.70;;;9.00;96.70;;;;;;5097398;28;20028;-75
2022/03/28 01:59:56;;;;;;;13.30;7.15;;;8.90;96.70;;;;;;5096120;28;20106;-75
2022/03/28 02:02:22;;;;;;;12.40;7.47;;;9.00;97.00;;;;;;5097522;28;20032;-75
2022/03/28 02:04:48;;;;;;;14.25;7.57;;;9.00;96.50;;;;;;5097071;28;20027;-75
2022/03/28 02:07:14;;;;;;;18.52;8.15;;;9.10;96.60;;;;;;5096365;28;20027;-75
2022/03/28 02:09:39;;;;;;;14.80;8.02;;;9.00;96.60;;;;;;5097394;28;20034;-76
2022/03/28 02:12:06;;;;;;;11.85;7.85;;;9.00;96.50;;;;;;5096311;28;20027;-76
2022/03/28 02:14:32;;;;;;;16.88;7.47;;;9.00;97.00;;;;;;5096219;28;20119;-76
2022/03/28 02:16:57;;;;;;;15.50;7.97;;;8.90;96.90;;;;;;5096078;28;20056;-76
2022/03/28 02:19:23;;;;;;;13.63;7.28;;;8.80;97.20;;;;;;5096896;28;20511;-76
2022/03/28 02:21:49;;;;;;;24.83;8.23;;;8.80;97.10;;;;;;5097288;28;20025;-75
2022/03/28 02:24:15;;;;;;;15.52;7.85;;;8.80;97.00;;;;;;5095797;28;20024;-75
2022/03/28 02:26:41;;;;;;;11.80;7.88;;;8.70;97.30;;;;;;5095866;28;20024;-75
2022/03/28 02:29:07;;;;;;;13.00;7.97;;;8.60;97.40;;;;;;5095727;28;20400;-75
2022/03/28 02:31:34;;;;;;;16.40;7.68;;;8.60;97.60;;;;;;5097301;28;20028;-75
2022/03/28 02:34:00;;;;;;;15.57;8.38;;;8.60;97.90;;;;;;5095656;28;20047;-75
2022/03/28 02:36:26;;;;;;;13.38;7.45;;;8.50;97.80;;;;;;5095786;28;20046;-75
2022/03/28 02:38:52;;;;;;;13.48;7.35;;;8.50;97.90;;;;;;5096047;28;20114;-75
2022/03/28 02:41:18;;;;;;;17.10;7.88;;;8.50;97.60;;;;;;5097135;28;20082;-75
2022/03/28 02:43:43;;;;;;;14.15;7.20;;;8.50;97.70;;;;;;5097059;28;20025;-75
2022/03/28 02:46:09;;;;;;;14.43;7.70;;;8.40;97.70;;;;;;5096233;28;20038;-75
2022/03/28 02:48:35;;;;;;;19.45;8.57;;;8.50;98.00;;;;;;5096867;28;20012;-75
2022/03/28 02:51:02;;;;;;;18.20;9.02;;;8.50;98.10;;;;;;5095804;28;20091;-75
2022/03/28 02:53:28;;;;;;;15.18;8.20;;;8.50;97.80;;;;;;5095712;28;20028;-75
2022/03/28 02:55:53;;;;;;;14.88;7.75;;;8.50;97.70;;;;;;5097117;28;20032;-75
2022/03/28 02:58:19;;;;;;;18.08;8.40;;;8.50;98.20;;;;;;5096827;28;20442;-75
2022/03/28 03:00:45;;;;;;;14.25;9.13;;;8.50;98.40;;;;;;5096933;28;20024;-75
2022/03/28 03:03:11;;;;;;;11.30;8.50;;;8.40;98.40;;;;;;5096843;28;20024;-75
2022/03/28 03:05:37;;;;;;;14.07;9.05;;;8.40;98.80;;;;;;5096766;28;20561;-76
2022/03/28 03:08:03;;;;;;;19.88;9.85;;;8.40;99.30;;;;;;5097025;28;20023;-75
2022/03/28 03:10:29;;;;;;;13.48;7.75;;;8.40;99.10;;;;;;5096962;28;20430;-75
2022/03/28 03:12:54;;;;;;;15.98;8.02;;;8.40;99.70;;;;;;5097087;28;20028;-75
2022/03/28 03:15:20;;;;;;;14.68;8.93;;;8.30;99.10;;;;;;5096791;28;20027;-75
2022/03/28 03:17:46;;;;;;;15.18;8.98;;;8.40;99.00;;;;;;5096695;28;20020;-75
2022/03/28 03:20:12;;;;;;;16.00;9.68;;;8.30;99.30;;;;;;5100462;28;20032;-75
2022/03/28 03:22:38;;;;;;;14.75;8.52;;;8.30;99.70;;;;;;5099328;28;20506;-75
2022/03/28 03:25:04;;;;;;;22.33;10.10;;;8.30;99.70;;;;;;5100441;28;20050;-75
2022/03/28 03:27:30;;;;;;;15.13;9.45;;;8.30;99.60;;;;;;5100766;28;20072;-75
2022/03/28 03:29:56;;;;;;;19.38;7.88;;;8.30;99.70;;;;;;5100249;28;20503;-75
2022/03/28 03:32:22;;;;;;;16.42;9.30;;;8.30;99.90;;;;;;5100314;28;20111;-75
2022/03/28 03:34:48;;;;;;;18.85;8.27;;;8.20;99.60;;;;;;5099932;28;20024;-75
2022/03/28 03:37:14;;;;;;;15.75;8.25;;;8.20;99.90;;;;;;5098785;28;20036;-75
2022/03/28 03:39:40;;;;;;;18.92;9.13;;;8.10;99.90;;;;;;5098842;28;20566;-75
2022/03/28 03:42:06;;;;;;;13.30;8.70;;;8.10;99.90;;;;;;5098521;28;20127;-75
2022/03/28 03:44:32;;;;;;;15.93;8.65;;;8.00;99.90;;;;;;5100085;28;20028;-75
2022/03/28 03:46:58;;;;;;;19.95;9.57;;;7.90;99.90;;;;;;5098923;28;20016;-75
2022/03/28 03:49:24;;;;;;;15.68;10.23;;;7.80;99.90;;;;;;5098361;28;20024;-75
2022/03/28 03:51:49;;;;;;;15.15;9.35;;;7.80;99.90;;;;;;5099946;28;20099;-75
2022/03/28 03:54:15;;;;;;;13.27;8.60;;;7.70;99.90;;;;;;5098666;28;20028;-76
2022/03/28 03:56:42;;;;;;;15.15;9.85;;;7.60;99.90;;;;;;5098329;28;20228;-75
2022/03/28 03:59:08;;;;;;;13.13;9.60;;;7.60;99.90;;;;;;5099993;28;20055;-75
2022/03/28 04:01:34;;;;;;;15.60;9.63;;;7.60;99.90;;;;;;5098722;28;20027;-75
2022/03/28 04:03:59;;;;;;;19.67;9.40;;;7.50;99.90;;;;;;5098012;28;20024;-75
2022/03/28 04:06:25;;;;;;;18.15;9.13;;;7.50;99.90;;;;;;5099760;28;20113;-76
2022/03/28 04:08:52;;;;;;;11.52;8.15;;;7.50;99.90;;;;;;5099833;28;20020;-76
2022/03/28 04:11:18;;;;;;;15.10;8.20;;;7.60;99.90;;;;;;5099748;28;20107;-75
2022/03/28 04:13:43;;;;;;;15.32;9.25;;;7.50;99.90;;;;;;5098594;28;20032;-75
2022/03/28 04:16:09;;;;;;;16.20;9.25;;;7.50;99.90;;;;;;5099458;28;20024;-75
2022/03/28 04:18:35;;;;;;;18.63;8.50;;;7.50;99.90;;;;;;5099123;28;20388;-75
2022/03/28 04:21:02;;;;;;;21.02;10.00;;;7.50;99.90;;;;;;5099526;28;20042;-75
2022/03/28 04:23:28;;;;;;;20.25;10.57;;;7.50;99.90;;;;;;5099477;28;20025;-75
2022/03/28 04:25:54;;;;;;;14.82;8.55;;;7.50;99.90;;;;;;5097953;28;20027;-75
2022/03/28 04:28:19;;;;;;;11.35;8.77;;;7.50;99.90;;;;;;5097758;28;20032;-75
2022/03/28 04:30:45;;;;;;;15.00;9.43;;;7.60;99.90;;;;;;5096728;28;20032;-75
2022/03/28 04:33:11;;;;;;;18.48;10.18;;;7.60;99.90;;;;;;5097608;28;20028;-75
2022/03/28 04:35:39;;;;;;;18.83;9.77;;;7.60;99.90;;;;;;5099313;28;20040;-75
2022/03/28 04:38:06;;;;;;;13.82;9.45;;;7.60;99.90;;;;;;5099075;28;20385;-75
2022/03/28 04:40:33;;;;;;;17.05;9.77;;;7.50;99.90;;;;;;5098924;28;20526;-75
2022/03/28 04:43:00;;;;;;;13.52;9.68;;;7.50;99.90;;;;;;5097568;28;20060;-75
2022/03/28 04:45:27;;;;;;;14.52;10.05;;;7.50;99.90;;;;;;5099019;28;20027;-75
2022/03/28 04:47:53;;;;;;;12.15;9.55;;;7.50;99.90;;;;;;5098660;28;20028;-75
2022/03/28 04:50:20;;;;;;;14.60;9.40;;;7.50;99.90;;;;;;5097706;28;20031;-75
2022/03/28 04:52:46;;;;;;;17.05;10.18;;;7.50;99.90;;;;;;5098610;28;20044;-76
2022/03/28 04:55:12;;;;;;;17.45;9.50;;;7.50;99.90;;;;;;5098937;28;20165;-75
2022/03/28 04:57:38;;;;;;;18.65;10.32;;;7.50;99.90;;;;;;5097174;28;20028;-75
2022/03/28 05:00:06;;;;;;;13.00;9.98;;;7.60;99.90;;;;;;5097670;28;20020;-75
2022/03/28 05:02:34;;;;;;;18.13;10.30;;;7.60;99.90;;;;;;5077915;28;20462;-75
2022/03/28 05:05:00;;;;;;;19.38;11.40;;;7.60;99.90;;;;;;5095611;28;20099;-75
2022/03/28 05:07:27;;;;;;;12.85;9.55;;;7.60;99.90;;;;;;5092445;28;20496;-75
2022/03/28 05:09:53;;;;;;;14.15;10.40;;;7.60;99.90;;;;;;5097938;28;20023;-76
2022/03/28 05:12:23;;;;;;;14.35;9.40;;;7.60;99.90;;;;;;5097780;28;20031;-76
2022/03/28 05:14:50;;;;;;;16.83;9.10;;;7.60;99.90;;;;;;5088673;28;20036;-77
2022/03/28 05:17:24;;;;;;;22.40;10.20;;;7.60;99.90;;;;;;5081170;28;20048;-77
2022/03/28 05:19:50;;;;;;;18.25;9.88;;;7.50;99.90;;;;;;5082377;28;20013;-77
2022/03/28 05:22:17;;;;;;;15.68;10.55;;;7.50;99.90;;;;;;5094265;28;20016;-77
2022/03/28 05:24:43;;;;;;;14.45;9.15;;;7.50;99.90;;;;;;5096469;28;20024;-76
2022/03/28 05:27:09;;;;;;;17.65;9.73;;;7.40;99.90;;;;;;5096343;28;20055;-76
2022/03/28 05:29:35;;;;;;;19.65;9.52;;;7.40;99.90;;;;;;5088403;28;20020;-76
2022/03/28 05:32:04;;;;;;;14.75;9.57;;;7.30;99.90;;;;;;5081172;28;20026;-77
2022/03/28 05:34:32;;;;;;;24.05;9.57;;;7.30;99.90;;;;;;5078838;28;20054;-76
2022/03/28 05:37:04;;;;;;;18.08;10.35;;;7.30;99.90;;;;;;5096441;28;20020;-77
2022/03/28 05:39:32;;;;;;;21.40;10.38;;;7.30;99.90;;;;;;5094176;28;20024;-76
2022/03/28 05:41:59;;;;;;;19.90;10.63;;;7.40;99.90;;;;;;5095728;28;20123;-76
2022/03/28 05:44:26;;;;;;;15.15;10.15;;;7.50;99.90;;;;;;5097899;28;20019;-76
2022/03/28 05:46:52;;;;;;;48.30;11.23;;;7.60;99.90;;;;;;5092268;28;20013;-77
2022/03/28 05:49:25;;;;;;;18.52;9.68;;;7.70;99.90;;;;;;5089538;28;20016;-76
2022/03/28 05:51:51;;;;;;;18.88;11.48;;;7.90;99.90;;;;;;5079056;28;20089;-76
2022/03/28 05:54:18;;;;;;;13.52;10.23;;;8.10;99.90;;;;;;5078111;28;20857;-76
2022/03/28 05:56:44;;;;;;;18.10;9.00;;;8.40;99.90;;;;;;5079342;28;20376;-76
2022/03/28 05:59:11;;;;;;;13.38;9.68;;;8.60;99.90;;;;;;5077968;28;20021;-77
2022/03/28 06:01:37;;;;;;;14.88;9.25;;;8.80;99.90;;;;;;5077983;28;20025;-76
2022/03/28 06:04:07;;;;;;;16.60;9.30;;;8.90;99.90;;;;;;5077864;28;20031;-76
2022/03/28 06:06:34;;;;;;;15.77;9.85;;;9.10;99.90;;;;;;5085126;28;20020;-76
2022/03/28 06:09:00;;;;;;;15.45;9.25;;;9.30;99.90;;;;;;5097833;28;20381;-79
2022/03/28 06:11:26;;;;;;;30.58;9.30;;;9.40;99.90;;;;;;5085162;28;20031;-78
2022/03/28 06:13:53;;;;;;;15.20;9.65;;;9.50;99.70;;;;;;5084674;28;20036;-78
2022/03/28 06:16:20;;;;;;;15.57;9.15;;;9.60;99.00;;;;;;5088068;28;20388;-78
2022/03/28 06:18:45;;;;;;;12.93;9.15;;;9.70;98.90;;;;;;5095345;28;20032;-78
2022/03/28 06:21:11;;;;;;;16.58;9.95;;;9.90;98.40;;;;;;5090334;28;20440;-78
2022/03/28 06:23:37;;;;;;;20.23;9.15;;;10.00;98.20;;;;;;5097166;28;20027;-78
2022/03/28 06:26:04;;;;;;;20.45;8.82;;;10.10;97.70;;;;;;5096053;28;20016;-76
2022/03/28 06:28:31;;;;;;;16.25;8.70;;;10.20;97.90;;;;;;5096144;28;20031;-76
2022/03/28 06:30:57;;;;;;;18.00;9.50;;;10.20;97.20;;;;;;5109115;28;20031;-76
2022/03/28 06:33:24;;;;;;;17.65;8.65;;;10.30;97.00;;;;;;5096239;28;20024;-77
2022/03/28 06:35:52;;;;;;;13.50;8.85;;;10.50;96.50;;;;;;5096336;28;20431;-77
2022/03/28 06:38:18;;;;;;;21.75;10.10;;;10.60;96.30;;;;;;5096422;28;20035;-76
2022/03/28 06:40:44;;;;;;;13.52;8.23;;;10.70;96.00;;;;;;5093765;28;20016;-76
2022/03/28 06:43:10;;;;;;;18.20;8.93;;;10.80;95.50;;;;;;5075677;28;20012;-76
2022/03/28 06:45:36;;;;;;;11.93;8.23;;;10.80;95.30;;;;;;5085083;28;20012;-77
2022/03/28 06:48:04;;;;;;;22.33;10.63;;;10.90;94.90;;;;;;5095699;28;20039;-77
2022/03/28 06:50:29;;;;;;;16.33;8.90;;;11.10;94.90;;;;;;5095236;28;20031;-77
2022/03/28 06:52:55;;;;;;;17.45;9.00;;;11.10;94.60;;;;;;5093967;28;20028;-77
2022/03/28 06:55:22;;;;;;;15.70;8.35;;;11.20;94.90;;;;;;5098796;28;20465;-77
2022/03/28 06:57:48;;;;;;;16.23;8.25;;;11.20;94.90;;;;;;5092134;28;20024;-77
2022/03/28 07:00:14;;;;;;;15.05;9.35;;;11.30;94.60;;;;;;5080828;28;20084;-77
2022/03/28 07:02:40;;;;;;;16.70;8.55;;;11.40;94.30;;;;;;5083489;28;20021;-76
2022/03/28 07:05:07;;;;;;;18.90;8.27;;;11.40;94.30;;;;;;5099406;28;20067;-78
2022/03/28 07:07:45;;;;;;;15.50;8.55;;;11.60;94.00;;;;;;5099008;28;20060;-76
2022/03/28 07:10:14;;;;;;;14.00;8.77;;;11.70;93.80;;;;;;5099515;28;20477;-77
2022/03/28 07:12:39;;;;;;;15.52;9.05;;;11.80;94.20;;;;;;5100381;28;20028;-76
2022/03/28 07:15:09;;;;;;;17.27;8.02;;;11.90;93.00;;;;;;5100588;28;20031;-77
2022/03/28 07:17:52;;;;;;;15.88;8.75;;;12.00;93.10;;;;;;5100264;28;20020;-77
2022/03/28 07:20:20;;;;;;;14.93;9.10;;;12.00;93.60;;;;;;5098434;28;20031;-77
2022/03/28 07:22:46;;;;;;;13.10;8.30;;;12.10;92.90;;;;;;5098186;28;20024;-77
2022/03/28 07:25:12;;;;;;;13.75;8.13;;;12.20;93.20;;;;;;5100236;28;20035;-78
2022/03/28 07:27:39;;;;;;;25.35;9.52;;;12.30;92.70;;;;;;5100143;28;20028;-77
2022/03/28 07:30:07;;;;;;;14.90;8.55;;;12.40;92.50;;;;;;5100101;28;20036;-77
2022/03/28 07:32:33;;;;;;;12.60;9.00;;;12.50;92.70;;;;;;5100156;28;20020;-77
2022/03/28 07:34:59;;;;;;;19.20;8.85;;;12.60;92.00;;;;;;5098831;28;20028;-77
2022/03/28 07:37:26;;;;;;;19.15;9.27;;;12.70;92.50;;;;;;5098761;28;20020;-76
2022/03/28 07:39:52;;;;;;;18.30;9.02;;;12.70;91.70;;;;;;5100065;28;20024;-77
2022/03/28 07:42:18;;;;;;;15.20;8.73;;;12.80;91.60;;;;;;5099544;28;20047;-76
2022/03/28 07:44:44;;;;;;;17.88;9.07;;;12.80;91.80;;;;;;5088974;28;20051;-76
2022/03/28 07:47:11;;;;;;;16.17;7.78;;;12.90;91.80;;;;;;5094816;28;20025;-77
2022/03/28 07:49:38;;;;;;;15.45;8.18;;;13.00;91.10;;;;;;5090845;28;20029;-77
2022/03/28 07:52:08;;;;;;;11.80;8.15;;;13.00;90.40;;;;;;5094502;28;20051;-77
2022/03/28 07:54:36;;;;;;;15.45;8.25;;;13.10;90.50;;;;;;5079815;28;20502;-78
2022/03/28 07:57:03;;;;;;;20.75;8.60;;;13.20;90.20;;;;;;5079005;28;20116;-76
2022/03/28 07:59:29;;;;;;;15.27;8.07;;;13.20;90.30;;;;;;5093927;28;20427;-76
2022/03/28 08:01:55;;;;;;;16.48;7.70;;;13.30;90.00;;;;;;5097756;28;20019;-76
2022/03/28 08:04:21;;;;;;;13.23;7.50;;;13.40;90.50;;;;;;5097977;28;20032;-76
2022/03/28 08:06:47;;;;;;;11.45;7.50;;;13.50;90.20;;;;;;5098939;28;20404;-76
2022/03/28 08:09:12;;;;;;;11.73;8.45;;;13.60;89.40;;;;;;5099223;28;20024;-75
2022/03/28 08:11:38;;;;;;;12.50;7.32;;;13.60;89.50;;;;;;5098122;28;20370;-76
2022/03/28 08:14:04;;;;;;;16.67;8.75;;;13.70;89.00;;;;;;5088553;28;20025;-77
2022/03/28 08:16:31;;;;;;;14.18;8.57;;;13.70;88.70;;;;;;5098894;28;20430;-76
2022/03/28 08:18:57;;;;;;;16.27;8.68;;;13.80;88.90;;;;;;5098939;28;20438;-75
2022/03/28 08:21:23;;;;;;;15.80;7.97;;;13.80;89.10;;;;;;5098113;28;20021;-76
2022/03/28 08:23:49;;;;;;;16.00;8.07;;;13.90;88.20;;;;;;5097478;28;20047;-76
2022/03/28 08:26:15;;;;;;;18.95;8.93;;;13.90;88.40;;;;;;5080117;28;21060;-75
2022/03/28 08:28:42;;;;;;;17.48;8.32;;;14.00;90.00;;;;;;5096539;28;20114;-76
2022/03/28 08:31:09;;;;;;;21.65;8.05;;;14.10;88.80;;;;;;5098724;28;20028;-76
2022/03/28 08:33:35;;;;;;;16.73;8.15;;;14.30;88.10;;;;;;5097034;28;20037;-76
2022/03/28 08:36:01;;;;;;;13.50;7.60;;;14.40;88.10;;;;;;5093733;28;20028;-77
2022/03/28 08:38:26;;;;;;;13.57;7.07;;;14.50;86.80;;;;;;5094829;28;20035;-77
2022/03/28 08:40:55;;;;;;;11.95;7.90;;;14.60;87.80;;;;;;5099183;28;20107;-77
2022/03/28 08:43:22;;;;;;;13.90;7.20;;;14.70;88.40;;;;;;5098785;28;20032;-76
2022/03/28 08:45:49;;;;;;;16.88;8.75;;;14.80;87.10;;;;;;5097408;28;20051;-76
2022/03/28 08:48:16;;;;;;;14.63;7.95;;;14.80;87.10;;;;;;5097075;28;20403;-77
2022/03/28 08:50:45;;;;;;;17.27;8.10;;;14.90;86.50;;;;;;5097675;28;20392;-77
2022/03/28 08:53:11;;;;;;;13.65;7.47;;;15.10;86.60;;;;;;5094175;28;20438;-78
2022/03/28 08:55:46;;;;;;;13.27;7.47;;;15.10;84.70;;;;;;5098228;28;20369;-77
2022/03/28 08:58:12;;;;;;;20.27;7.55;;;15.20;85.20;;;;;;5095644;28;20024;-77
2022/03/28 09:00:39;;;;;;;13.60;8.20;;;15.30;86.70;;;;;;5090373;28;20103;-76
2022/03/28 09:03:05;;;;;;;17.58;8.07;;;15.30;85.50;;;;;;5096867;28;20024;-78
2022/03/28 09:05:36;;;;;;;12.88;7.40;;;15.30;84.10;;;;;;5098580;28;20020;-77
2022/03/28 09:08:04;;;;;;;14.25;8.07;;;15.40;84.40;;;;;;5092255;28;20032;-76
2022/03/28 09:10:33;;;;;;;15.07;8.18;;;15.50;83.20;;;;;;5096958;28;20374;-77
2022/03/28 09:13:13;;;;;;;15.23;8.50;;;15.60;83.30;;;;;;5096964;28;20110;-77
2022/03/28 09:15:43;;;;;;;15.85;6.97;;;15.70;81.90;;;;;;5097555;28;20024;-77
2022/03/28 09:18:19;;;;;;;13.00;8.00;;;15.80;82.50;;;;;;5097957;28;20039;-77
2022/03/28 09:20:49;;;;;;;17.92;8.20;;;15.90;82.60;;;;;;5097933;28;20025;-77
2022/03/28 09:23:31;;;;;;;13.85;7.70;;;15.90;84.00;;;;;;5095045;28;20040;-77
2022/03/28 09:25:57;;;;;;;17.90;8.93;;;16.10;84.00;;;;;;5096667;28;20084;-78
2022/03/28 09:28:25;;;;;;;13.50;7.18;;;16.20;84.00;;;;;;5096546;28;20395;-76
2022/03/28 09:30:50;;;;;;;13.38;8.00;;;16.20;82.50;;;;;;5083318;28;20027;-77
2022/03/28 09:33:18;;;;;;;16.10;6.97;;;16.20;82.70;;;;;;5091881;28;20032;-77
2022/03/28 09:35:47;;;;;;;19.00;8.02;;;16.30;82.70;;;;;;5093819;28;20107;-77
2022/03/28 09:38:18;;;;;;;16.35;8.50;;;16.30;82.30;;;;;;5085658;28;20078;-77
2022/03/28 09:40:53;;;;;;;14.75;7.63;;;16.30;81.80;;;;;;5097453;28;20016;-77
2022/03/28 09:43:21;;;;;;;12.98;7.72;;;16.40;81.70;;;;;;5096541;28;20038;-77
2022/03/28 09:45:50;;;;;;;17.30;7.90;;;16.40;80.30;;;;;;5076865;28;20027;-77
2022/03/28 09:48:19;;;;;;;24.55;8.75;;;16.50;81.40;;;;;;5096416;28;20062;-77
2022/03/28 09:50:57;;;;;;;14.02;7.80;;;16.60;80.90;;;;;;5095975;28;20043;-78
2022/03/28 09:53:31;;;;;;;16.38;7.95;;;16.60;79.60;;;;;;5095038;28;20396;-77
2022/03/28 09:56:08;;;;;;;14.10;8.65;;;16.70;79.20;;;;;;5094738;28;20024;-78
2022/03/28 09:58:48;;;;;;;16.10;8.00;;;16.80;78.90;;;;;;5094166;28;20103;-77
2022/03/28 10:01:20;;;;;;;16.20;8.70;;;16.90;80.70;;;;;;5096115;28;20020;-77
2022/03/28 10:03:48;;;;;;;15.15;9.40;;;17.10;79.60;;;;;;5095865;28;20113;-77
2022/03/28 10:06:15;;;;;;;20.98;8.90;;;17.10;78.90;;;;;;5094977;28;20050;-77
2022/03/28 10:08:42;;;;;;;24.55;8.57;;;17.20;78.10;;;;;;5096031;28;20024;-77
2022/03/28 10:11:08;;;;;;;13.65;8.35;;;17.30;77.80;;;;;;5093530;28;20054;-77
2022/03/28 10:13:35;;;;;;;17.08;8.73;;;17.20;79.60;;;;;;5094095;28;20028;-78
2022/03/28 10:16:02;;;;;;;22.02;8.77;;;17.30;80.00;;;;;;5093835;28;20031;-77
2022/03/28 10:18:33;;;;;;;12.50;8.82;;;17.30;80.00;;;;;;5094632;28;20048;-78
2022/03/28 10:21:06;;;;;;;19.52;7.80;;;17.40;81.30;;;;;;5087617;28;20028;-78
2022/03/28 10:23:37;;;;;;;16.65;7.40;;;17.50;80.50;;;;;;5113569;28;20028;-77
2022/03/28 10:26:07;;;;;;;16.60;7.25;;;17.50;79.40;;;;;;5095325;28;20551;-77
2022/03/28 10:28:33;;;;;;;17.48;8.65;;;17.60;79.30;;;;;;5094675;28;20024;-77
2022/03/28 10:31:18;;;;;;;11.93;7.53;;;17.70;80.40;;;;;;5095715;28;20038;-78
2022/03/28 10:34:03;;;;;;;12.70;7.80;;;17.80;79.80;;;;;;5087800;28;20572;-77
2022/03/28 10:36:31;;;;;;;14.57;7.35;;;17.90;78.70;;;;;;5092817;28;20024;-77
2022/03/28 10:39:31;;;;;;;14.88;7.57;;;17.90;76.70;;;;;;5094285;28;20055;-76
2022/03/28 10:42:06;;;;;;;19.97;7.20;;;18.00;78.00;;;;;;5047282;28;1348168;-78
2022/03/28 10:44:46;;;;;;;12.98;7.22;;;18.10;76.70;;;;;;5096594;28;20051;-78
2022/03/28 10:47:14;;;;;;;13.82;7.20;;;18.10;79.40;;;;;;5088122;28;20476;-78
2022/03/28 10:49:43;;;;;;;15.20;8.63;;;18.20;79.90;;;;;;5091800;28;20031;-77
2022/03/28 10:52:15;;;;;;;13.27;7.25;;;18.30;76.90;;;;;;5097047;28;20158;-77
2022/03/28 10:54:41;;;;;;;14.18;7.43;;;18.30;77.60;;;;;;5097277;28;20028;-78
2022/03/28 10:57:27;;;;;;;21.45;9.13;;;18.40;76.50;;;;;;5090168;28;20055;-77
2022/03/28 11:00:10;;;;;;;16.85;8.27;;;18.50;76.00;;;;;;5096299;28;20102;-76
2022/03/28 11:02:37;;;;;;;16.98;9.43;;;18.70;75.80;;;;;;5096547;28;20024;-78
2022/03/28 11:05:13;;;;;;;15.20;7.68;;;19.00;76.90;;;;;;5093038;28;20027;-77
2022/03/28 11:07:38;;;;;;;21.65;8.02;;;19.10;74.90;;;;;;5092195;28;20024;-77
2022/03/28 11:10:08;;;;;;;20.85;7.97;;;19.20;76.90;;;;;;5095695;28;20388;-78
2022/03/28 11:12:39;;;;;;;16.10;7.95;;;19.20;75.20;;;;;;5095314;28;20028;-76
2022/03/28 11:15:19;;;;;;;14.43;7.00;;;19.30;74.70;;;;;;5097224;28;20534;-77
2022/03/28 11:18:03;;;;;;;17.58;8.13;;;19.30;74.50;;;;;;5096632;28;20032;-76
2022/03/28 11:20:45;;;;;;;19.75;7.25;;;19.20;74.20;;;;;;5096762;28;20031;-76
2022/03/28 11:23:13;;;;;;;13.98;7.63;;;19.10;74.70;;;;;;5096931;28;20087;-77
2022/03/28 11:25:55;;;;;;;16.48;7.53;;;19.20;75.40;;;;;;5096663;28;20074;-77
2022/03/28 11:28:26;;;;;;;19.20;7.63;;;19.40;77.30;;;;;;5095320;28;20058;-76
2022/03/28 11:31:06;;;;;;;14.98;7.32;;;19.60;78.10;;;;;;5082359;28;20083;-77
2022/03/28 11:33:42;;;;;;;15.20;7.72;;;19.80;77.30;;;;;;5094433;28;20077;-74
2022/03/28 11:36:14;;;;;;;22.33;7.30;;;20.00;76.50;;;;;;5093738;28;20028;-75
2022/03/28 11:38:42;;;;;;;16.75;7.47;;;20.10;76.30;;;;;;5096543;28;20556;-74
2022/03/28 11:41:09;;;;;;;25.38;7.55;;;20.10;75.50;;;;;;5099016;28;20071;-74
2022/03/28 11:43:47;;;;;;;14.18;7.72;;;20.10;74.60;;;;;;5082681;28;20043;-75
2022/03/28 11:46:20;;;;;;;13.25;7.53;;;20.10;75.30;;;;;;5079834;28;20017;-74
2022/03/28 11:49:06;;;;;;;14.63;8.77;;;20.20;74.90;;;;;;5097702;28;20024;-75
2022/03/28 11:51:34;;;;;;;24.42;10.80;;;20.20;75.20;;;;;;5099595;28;20130;-75
2022/03/28 11:54:08;;;;;;;15.43;8.10;;;20.10;74.20;;;;;;5100221;28;20094;-76
2022/03/28 11:58:14;;;;;;;18.77;10.75;;;20.10;75.40;;;;;;5098742;28;20035;-75
2022/03/28 11:59:22;;;;;;;23.50;9.30;;;20.10;76.40;;;;;;5098861;28;20031;-75
2022/03/28 12:02:02;;;;;;;17.33;7.93;;;20.00;73.60;;;;;;5098296;28;20027;-74
2022/03/28 12:04:28;;;;;;;22.08;7.85;;;20.10;76.60;;;;;;5097698;28;20499;-73
2022/03/28 12:06:54;;;;;;;20.40;8.00;;;20.20;74.30;;;;;;5097262;28;20114;-74
2022/03/28 12:09:21;;;;;;;18.20;7.03;;;20.20;73.80;;;;;;5098167;28;20059;-74
2022/03/28 12:11:49;;;;;;;22.90;8.55;;;20.30;74.20;;;;;;5099498;28;20511;-74
2022/03/28 12:14:15;;;;;;;16.92;8.68;;;20.40;74.50;;;;;;5097944;28;20035;-75
2022/03/28 12:16:56;;;;;;;25.83;7.65;;;20.40;74.50;;;;;;5097891;28;20391;-75
2022/03/28 12:19:27;;;;;;;17.45;8.43;;;20.40;73.00;;;;;;5098814;28;20020;-76
2022/03/28 12:21:54;;;;;;;17.00;8.52;;;20.50;75.00;;;;;;5097521;28;20545;-75
2022/03/28 12:24:22;;;;;;;18.92;7.65;;;20.50;74.40;;;;;;5097006;28;20020;-75
2022/03/28 12:26:51;;;;;;;19.58;7.40;;;20.60;73.30;;;;;;5099306;28;20031;-75
2022/03/28 12:29:17;;;;;;;22.40;7.40;;;20.70;75.00;;;;;;5099190;28;20027;-75
2022/03/28 12:31:48;;;;;;;21.58;8.80;;;20.80;74.60;;;;;;5099154;28;20476;-75
2022/03/28 12:34:19;;;;;;;25.80;8.98;;;20.80;72.70;;;;;;5099047;28;20549;-75
2022/03/28 12:36:45;;;;;;;;;;;20.90;74.90;;;;;;5098506;28;20028;-75
2022/03/28 12:39:12;;;;;;;21.17;8.60;;;20.90;73.80;;;;;;5099224;28;19954;-75
2022/03/28 12:41:53;;;;;;;20.48;8.05;;;20.90;74.80;;;;;;5097522;28;20040;-76
2022/03/28 12:44:23;;;;;;;25.15;8.07;;;20.90;73.30;;;;;;5099350;28;20069;-74
2022/03/28 12:46:49;;;;;;;18.08;7.63;;;20.90;73.00;;;;;;5097888;28;20047;-74
2022/03/28 12:49:19;;;;;;;15.90;7.93;;;21.00;72.90;;;;;;5098761;28;20038;-77